createdAt,value
2023-05-14T00:02:43.079Z,99212.44
2023-05-14T00:05:28.455Z,99210.06
2023-05-14T00:08:13.745Z,99204.94
2023-05-14T00:10:59.194Z,99199.03
2023-05-14T00:13:44.683Z,99203.00
2023-05-14T00:16:29.994Z,99193.13
2023-05-14T00:19:15.732Z,99186.41
2023-05-14T00:22:00.934Z,99185.59
2023-05-14T00:24:46.349Z,99181.25
2023-05-14T00:27:31.659Z,99183.25
2023-05-14T00:30:16.890Z,99181.66
2023-05-14T00:33:02.319Z,99180.53
2023-05-14T00:35:47.375Z,99174.97
2023-05-14T00:38:32.751Z,99172.19
2023-05-14T00:41:18.098Z,99170.28
2023-05-14T00:44:03.437Z,99166.28
2023-05-14T00:46:49.068Z,99166.72
2023-05-14T00:49:34.586Z,99163.94
2023-05-14T00:52:20.568Z,99174.69
2023-05-14T00:55:07.023Z,99166.78
2023-05-14T00:57:54.789Z,99169.13
2023-05-14T01:00:41.689Z,99165.22
2023-05-14T01:03:27.681Z,99165.22
2023-05-14T01:06:27.359Z,99165.63
2023-05-14T01:09:22.724Z,99158.94
2023-05-14T01:12:44.313Z,99170.06
2023-05-14T01:15:32.309Z,99172.84
2023-05-14T01:18:19.558Z,99172.47
2023-05-14T01:21:06.354Z,99169.69
2023-05-14T01:23:51.762Z,99176.44
2023-05-14T01:26:37.481Z,99169.31
2023-05-14T01:29:24.643Z,99173.66
2023-05-14T01:32:10.924Z,99164.97
2023-05-14T01:35:00.292Z,99173.28
2023-05-14T01:37:48.378Z,99163.78
2023-05-14T01:40:35.540Z,99171.75
2023-05-14T01:43:21.404Z,99168.19
2023-05-14T01:46:06.563Z,99162.63
2023-05-14T01:48:51.817Z,99160.28
2023-05-14T01:51:37.800Z,99159.03
2023-05-14T01:54:23.312Z,99159.03
2023-05-14T01:57:09.167Z,99156.72
2023-05-14T01:59:54.800Z,99155.94
2023-05-14T02:02:40.123Z,99155.94
2023-05-14T02:05:27.587Z,99154.00
2023-05-14T02:08:12.804Z,99154.34
2023-05-14T02:10:58.179Z,99155.13
2023-05-14T02:13:44.395Z,99145.66
2023-05-14T02:16:29.840Z,99148.44
2023-05-14T02:19:15.090Z,99147.25
2023-05-14T02:22:01.285Z,99150.03
2023-05-14T02:24:46.887Z,99152.00
2023-05-14T02:27:31.945Z,99145.66
2023-05-14T02:30:17.434Z,99141.31
2023-05-14T02:33:03.057Z,99144.09
2023-05-14T02:35:48.644Z,99148.88
2023-05-14T02:38:33.897Z,99141.75
2023-05-14T02:41:19.188Z,99148.06
2023-05-14T02:44:04.728Z,99142.50
2023-05-14T02:46:49.941Z,99144.50
2023-05-14T02:49:35.145Z,99143.75
2023-05-14T02:52:20.327Z,99144.94
2023-05-14T02:55:06.281Z,99143.75
2023-05-14T02:57:53.247Z,99146.50
2023-05-14T03:00:38.668Z,99139.38
2023-05-14T03:03:24.438Z,99133.03
2023-05-14T03:06:10.317Z,99129.50
2023-05-14T03:08:55.583Z,99135.81
2023-05-14T03:11:40.940Z,99138.59
2023-05-14T03:14:26.400Z,99133.81
2023-05-14T03:17:11.757Z,99131.50
2023-05-14T03:19:57.911Z,99135.03
2023-05-14T03:22:43.191Z,99143.00
2023-05-14T03:25:28.634Z,99143.38
2023-05-14T03:28:14.033Z,99134.69
2023-05-14T03:30:59.449Z,99136.22
2023-05-14T03:33:45.036Z,99135.47
2023-05-14T03:36:30.352Z,99133.91
2023-05-14T03:39:19.620Z,99127.13
2023-05-14T03:42:05.259Z,99120.78
2023-05-14T03:44:50.602Z,99126.34
2023-05-14T03:47:36.049Z,99130.69
2023-05-14T03:50:25.903Z,99128.34
2023-05-14T03:53:11.236Z,99127.56
2023-05-14T03:55:56.841Z,99114.81
2023-05-14T03:58:42.950Z,99118.38
2023-05-14T04:01:28.527Z,99113.97
2023-05-14T04:04:16.405Z,99110.75
2023-05-14T04:07:01.881Z,99110.69
2023-05-14T04:09:47.579Z,99108.72
2023-05-14T04:12:33.036Z,99106.25
2023-05-14T04:15:18.179Z,99111.81
2023-05-14T04:18:03.999Z,99106.97
2023-05-14T04:20:49.232Z,99109.69
2023-05-14T04:23:34.801Z,99106.16
2023-05-14T04:26:21.989Z,99109.28
2023-05-14T04:29:08.841Z,99104.09
2023-05-14T04:31:54.081Z,99104.88
2023-05-14T04:34:39.995Z,99101.63
2023-05-14T04:37:26.093Z,99100.03
2023-05-14T04:40:12.554Z,99101.56
2023-05-14T04:42:58.270Z,99098.78
2023-05-14T04:45:45.162Z,99098.78
2023-05-14T04:48:31.612Z,99097.56
2023-05-14T04:51:16.817Z,99095.16
2023-05-14T04:54:02.113Z,99091.91
2023-05-14T04:56:47.771Z,99095.47
2023-05-14T04:59:33.368Z,99085.50
2023-05-14T05:02:18.646Z,99082.72
2023-05-14T05:05:04.330Z,99080.72
2023-05-14T05:07:50.174Z,99085.44
2023-05-14T05:10:35.541Z,99082.66
2023-05-14T05:13:20.539Z,99085.44
2023-05-14T05:16:06.364Z,99078.66
2023-05-14T05:18:52.190Z,99080.22
2023-05-14T05:21:40.352Z,99080.22
2023-05-14T05:24:26.067Z,99075.00
2023-05-14T05:27:11.504Z,99071.03
2023-05-14T05:29:57.512Z,99071.03
2023-05-14T05:32:42.982Z,99066.22
2023-05-14T05:35:29.201Z,99067.81
2023-05-14T05:38:15.927Z,99058.31
2023-05-14T05:41:01.897Z,99056.41
2023-05-14T05:43:47.195Z,99056.75
2023-05-14T05:46:52.062Z,99056.75
2023-05-14T05:49:38.312Z,99050.34
2023-05-14T05:52:23.914Z,99055.47
2023-05-14T05:55:11.078Z,99059.03
2023-05-14T05:58:22.706Z,99053.03
2023-05-14T06:01:09.027Z,99059.03
2023-05-14T06:03:54.906Z,99057.84
2023-05-14T06:06:40.421Z,99056.59
2023-05-14T06:09:25.852Z,99055.41
2023-05-14T06:12:11.189Z,99052.63
2023-05-14T06:14:57.931Z,99057.31
2023-05-14T06:17:43.455Z,99052.53
2023-05-14T06:20:29.398Z,99057.31
2023-05-14T06:23:15.253Z,99044.19
2023-05-14T06:26:00.902Z,99045.78
2023-05-14T06:28:46.599Z,99046.13
2023-05-14T06:31:32.121Z,99050.56
2023-05-14T06:34:17.413Z,99052.09
2023-05-14T06:37:04.381Z,99052.03
2023-05-14T06:39:52.641Z,99043.25
2023-05-14T06:42:38.331Z,99042.06
2023-05-14T06:45:24.047Z,99044.47
2023-05-14T06:48:10.346Z,99042.81
2023-05-14T06:50:56.333Z,99034.84
2023-05-14T06:53:41.944Z,99040.41
2023-05-14T06:56:27.107Z,99033.25
2023-05-14T06:59:12.747Z,99027.28
2023-05-14T07:01:58.613Z,99037.97
2023-05-14T07:04:44.303Z,99024.84
2023-05-14T07:07:30.196Z,99028.84
2023-05-14T07:10:15.367Z,99032.31
2023-05-14T07:13:00.878Z,99024.78
2023-05-14T07:15:46.307Z,99025.56
2023-05-14T07:18:31.487Z,99023.97
2023-05-14T07:21:16.764Z,99016.78
2023-05-14T07:24:02.224Z,99016.78
2023-05-14T07:26:47.599Z,99011.53
2023-05-14T07:29:35.091Z,99014.69
2023-05-14T07:32:25.274Z,99012.69
2023-05-14T07:35:11.750Z,99011.47
2023-05-14T07:37:57.396Z,99001.13
2023-05-14T07:40:43.381Z,99005.84
2023-05-14T07:43:28.910Z,98997.50
2023-05-14T07:46:14.823Z,98993.47
2023-05-14T07:49:01.514Z,98989.56
2023-05-14T07:51:47.599Z,98989.16
2023-05-14T07:54:33.455Z,98984.34
2023-05-14T07:57:19.903Z,98992.28
2023-05-14T08:00:09.422Z,98989.50
2023-05-14T08:03:00.790Z,98993.41
2023-05-14T08:05:46.487Z,98989.03
2023-05-14T08:08:32.155Z,98982.69
2023-05-14T08:11:17.850Z,98989.81
2023-05-14T08:14:03.103Z,98982.69
2023-05-14T08:16:48.643Z,98987.03
2023-05-14T08:19:33.954Z,98982.69
2023-05-14T08:22:19.292Z,98977.13
2023-05-14T08:25:06.025Z,98986.25
2023-05-14T08:27:51.579Z,98990.28
2023-05-14T08:30:38.022Z,98988.25
2023-05-14T08:33:23.539Z,98982.34
2023-05-14T08:36:09.518Z,98991.94
2023-05-14T08:38:56.094Z,98987.56
2023-05-14T08:41:41.490Z,98979.22
2023-05-14T08:44:38.930Z,98984.44
2023-05-14T08:47:25.622Z,98985.22
2023-05-14T08:50:11.550Z,98978.09
2023-05-14T08:52:57.443Z,98979.31
2023-05-14T08:55:44.262Z,98970.97
2023-05-14T08:58:30.040Z,98968.53
2023-05-14T09:01:15.462Z,98969.75
2023-05-14T09:04:07.098Z,98966.53
2023-05-14T09:06:54.342Z,98976.44
2023-05-14T09:09:40.478Z,98969.69
2023-05-14T09:12:26.275Z,98967.66
2023-05-14T09:15:13.192Z,98970.81
2023-05-14T09:17:58.829Z,98959.69
2023-05-14T09:20:44.212Z,98953.66
2023-05-14T09:23:33.354Z,98957.25
2023-05-14T09:26:18.974Z,98957.25
2023-05-14T09:29:04.241Z,98953.22
2023-05-14T09:31:51.580Z,98950.03
2023-05-14T09:34:40.783Z,98954.00
2023-05-14T09:37:28.687Z,98959.56
2023-05-14T09:40:15.335Z,98955.59
2023-05-14T09:43:01.979Z,98943.69
2023-05-14T09:45:47.505Z,98950.44
2023-05-14T09:48:32.990Z,98939.31
2023-05-14T09:51:19.875Z,98944.09
2023-05-14T09:54:08.963Z,98942.53
2023-05-14T09:56:55.739Z,98928.97
2023-05-14T09:59:41.960Z,98922.28
2023-05-14T10:02:38.416Z,98926.66
2023-05-14T10:05:24.896Z,98914.28
2023-05-14T10:08:19.568Z,98912.75
2023-05-14T10:11:20.885Z,98903.59
2023-05-14T10:14:24.689Z,98897.59
2023-05-14T10:17:18.404Z,98897.59
2023-05-14T10:20:06.862Z,98896.81
2023-05-14T10:22:52.506Z,98894.81
2023-05-14T10:25:38.117Z,98892.03
2023-05-14T10:28:23.614Z,98882.13
2023-05-14T10:31:10.394Z,98882.13
2023-05-14T10:33:57.014Z,98886.47
2023-05-14T10:36:43.286Z,98882.13
2023-05-14T10:39:41.796Z,98889.25
2023-05-14T10:42:29.061Z,98880.13
2023-05-14T10:45:15.721Z,98875.34
2023-05-14T10:48:01.448Z,98879.34
2023-05-14T10:50:48.701Z,98882.13
2023-05-14T10:53:36.937Z,98880.56
2023-05-14T10:56:24.352Z,98883.34
2023-05-14T10:59:11.027Z,98869.09
2023-05-14T11:01:59.626Z,98863.63
2023-05-14T11:04:53.088Z,98860.50
2023-05-14T11:07:43.354Z,98862.53
2023-05-14T11:10:30.426Z,98857.03
2023-05-14T11:13:16.787Z,98852.72
2023-05-14T11:16:15.099Z,98847.56
2023-05-14T11:19:07.113Z,98857.13
2023-05-14T11:21:52.821Z,98848.09
2023-05-14T11:24:38.043Z,98857.22
2023-05-14T11:27:24.097Z,98851.31
2023-05-14T11:30:16.813Z,98843.41
2023-05-14T11:33:02.416Z,98849.06
2023-05-14T11:35:48.435Z,98849.06
2023-05-14T11:38:34.046Z,98841.16
2023-05-14T11:41:21.694Z,98835.59
2023-05-14T11:44:09.094Z,98838.03
2023-05-14T11:46:58.939Z,98832.47
2023-05-14T11:49:44.710Z,98834.91
2023-05-14T11:52:29.899Z,98834.91
2023-05-14T11:55:16.016Z,98834.91
2023-05-14T11:58:01.953Z,98826.22
2023-05-14T12:00:51.104Z,98820.66
2023-05-14T12:03:36.729Z,98819.09
2023-05-14T12:06:22.293Z,98813.53
2023-05-14T12:09:07.597Z,98809.19
2023-05-14T12:11:53.112Z,98810.41
2023-05-14T12:14:41.712Z,98811.97
2023-05-14T12:17:27.270Z,98810.41
2023-05-14T12:20:13.042Z,98804.50
2023-05-14T12:22:58.422Z,98799.72
2023-05-14T12:25:51.389Z,98795.41
2023-05-14T12:28:39.093Z,98797.38
2023-05-14T12:31:50.871Z,98792.28
2023-05-14T12:34:37.646Z,98791.47
2023-05-14T12:37:23.356Z,98789.91
2023-05-14T12:40:09.794Z,98790.69
2023-05-14T12:42:56.893Z,98785.13
2023-05-14T12:45:42.363Z,98787.13
2023-05-14T12:48:27.877Z,98789.91
2023-05-14T12:51:13.405Z,98780.81
2023-05-14T12:53:58.638Z,98773.25
2023-05-14T12:56:43.871Z,98767.69
2023-05-14T12:59:29.147Z,98772.47
2023-05-14T13:02:17.280Z,98768.91
2023-05-14T13:05:03.722Z,98760.56
2023-05-14T13:07:49.246Z,98757.44
2023-05-14T13:10:34.526Z,98754.69
2023-05-14T13:13:19.815Z,98760.22
2023-05-14T13:16:05.485Z,98767.75
2023-05-14T13:18:51.066Z,98764.22
2023-05-14T13:21:36.184Z,98767.00
2023-05-14T13:24:21.648Z,98765.44
2023-05-14T13:27:06.834Z,98763.88
2023-05-14T13:29:52.176Z,98763.88
2023-05-14T13:32:37.635Z,98754.75
2023-05-14T13:35:23.556Z,98755.97
2023-05-14T13:38:09.193Z,98755.97
2023-05-14T13:40:54.501Z,98753.63
2023-05-14T13:43:39.843Z,98752.41
2023-05-14T13:46:25.242Z,98757.19
2023-05-14T13:49:10.550Z,98754.41
2023-05-14T13:51:55.913Z,98747.31
2023-05-14T13:54:41.195Z,98747.31
2023-05-14T13:57:26.474Z,98747.69
2023-05-14T14:00:12.154Z,98740.59
2023-05-14T14:02:58.057Z,98739.78
2023-05-14T14:05:43.581Z,98739.00
2023-05-14T14:08:28.941Z,98736.25
2023-05-14T14:11:14.259Z,98739.00
2023-05-14T14:13:59.403Z,98741.44
2023-05-14T14:16:44.908Z,98738.66
2023-05-14T14:19:30.097Z,98740.25
2023-05-14T14:22:17.475Z,98738.66
2023-05-14T14:25:03.687Z,98729.97
2023-05-14T14:27:49.302Z,98733.53
2023-05-14T14:30:34.720Z,98721.31
2023-05-14T14:33:20.051Z,98719.31
2023-05-14T14:36:06.012Z,98728.53
2023-05-14T14:38:51.549Z,98718.19
2023-05-14T14:41:36.971Z,98712.97
2023-05-14T14:44:22.281Z,98717.31
2023-05-14T14:47:07.646Z,98712.88
2023-05-14T14:49:52.913Z,98708.44
2023-05-14T14:52:39.102Z,98709.16
2023-05-14T14:55:24.547Z,98715.84
2023-05-14T14:58:10.319Z,98710.63
2023-05-14T15:00:57.317Z,98705.00
2023-05-14T15:03:42.979Z,98695.00
2023-05-14T15:06:28.264Z,98689.78
2023-05-14T15:09:13.398Z,98700.00
2023-05-14T15:11:59.011Z,98692.00
2023-05-14T15:14:44.319Z,98692.78
2023-05-14T15:17:29.974Z,98684.78
2023-05-14T15:20:16.557Z,98685.13
2023-05-14T15:23:02.669Z,98685.91
2023-05-14T15:25:49.179Z,98691.38
2023-05-14T15:28:34.769Z,98696.03
2023-05-14T15:31:20.127Z,98693.19
2023-05-14T15:34:05.408Z,98673.25
2023-05-14T15:36:50.722Z,98685.94
2023-05-14T15:39:35.982Z,98663.63
2023-05-14T15:42:22.012Z,98680.94
2023-05-14T15:45:07.845Z,98669.41
2023-05-14T15:47:53.288Z,98671.28
2023-05-14T15:50:38.853Z,98674.41
2023-05-14T15:53:24.012Z,98670.41
2023-05-14T15:56:10.357Z,98677.53
2023-05-14T15:58:55.926Z,98676.31
2023-05-14T16:01:41.460Z,98669.84
2023-05-14T16:04:27.785Z,98667.84
2023-05-14T16:07:13.416Z,98668.66
2023-05-14T16:09:59.003Z,98668.66
2023-05-14T16:12:47.462Z,98664.63
2023-05-14T16:15:33.158Z,98669.44
2023-05-14T16:18:24.839Z,98671.75
2023-05-14T16:21:10.314Z,98671.31
2023-05-14T16:23:59.879Z,98671.66
2023-05-14T16:26:45.825Z,98667.63
2023-05-14T16:29:31.584Z,98672.75
2023-05-14T16:32:17.198Z,98678.31
2023-05-14T16:35:03.258Z,98673.88
2023-05-14T16:37:48.965Z,98679.34
2023-05-14T16:40:35.281Z,98674.13
2023-05-14T16:43:20.714Z,98674.13
2023-05-14T16:46:06.618Z,98668.13
2023-05-14T16:48:52.392Z,98672.00
2023-05-14T16:51:42.820Z,98666.81
2023-05-14T16:54:28.835Z,98672.78
2023-05-14T16:57:14.810Z,98671.22
2023-05-14T17:00:00.878Z,98673.91
2023-05-14T17:02:49.285Z,98677.03
2023-05-14T17:05:36.209Z,98675.38
2023-05-14T17:08:22.226Z,98669.38
2023-05-14T17:11:08.366Z,98667.78
2023-05-14T17:13:54.044Z,98662.56
2023-05-14T17:16:40.563Z,98653.78
2023-05-14T17:19:25.930Z,98657.34
2023-05-14T17:22:11.492Z,98664.13
2023-05-14T17:24:57.527Z,98665.34
2023-05-14T17:27:43.004Z,98668.59
2023-05-14T17:30:29.010Z,98667.78
2023-05-14T17:33:14.787Z,98662.22
2023-05-14T17:36:00.459Z,98665.34
2023-05-14T17:38:46.012Z,98664.13
2023-05-14T17:41:31.356Z,98663.03
2023-05-14T17:44:16.624Z,98660.69
2023-05-14T17:47:03.204Z,98665.56
2023-05-14T17:49:48.210Z,98662.78
2023-05-14T17:52:33.649Z,98665.66
2023-05-14T17:55:19.318Z,98661.75
2023-05-14T17:58:04.945Z,98658.28
2023-05-14T18:00:50.497Z,98655.97
2023-05-14T18:03:36.029Z,98653.28
2023-05-14T18:06:21.721Z,98656.50
2023-05-14T18:09:07.029Z,98653.06
2023-05-14T18:11:52.560Z,98651.50
2023-05-14T18:14:38.919Z,98650.38
2023-05-14T18:17:24.165Z,98645.72
2023-05-14T18:20:09.943Z,98649.72
2023-05-14T18:22:55.156Z,98652.94
2023-05-14T18:25:40.541Z,98647.81
2023-05-14T18:28:26.784Z,98647.91
2023-05-14T18:31:12.463Z,98655.50
2023-05-14T18:33:58.200Z,98662.72
2023-05-14T18:36:43.591Z,98646.47
2023-05-14T18:39:28.642Z,98651.69
2023-05-14T18:42:14.551Z,98657.25
2023-05-14T18:45:00.026Z,98661.25
2023-05-14T18:47:46.134Z,98658.13
2023-05-14T18:50:31.614Z,98660.59
2023-05-14T18:53:16.994Z,98666.13
2023-05-14T18:56:02.258Z,98664.59
2023-05-14T18:58:47.368Z,98668.59
2023-05-14T19:01:32.883Z,98666.22
2023-05-14T19:04:18.229Z,98680.59
2023-05-14T19:07:03.815Z,98678.69
2023-05-14T19:09:49.497Z,98672.78
2023-05-14T19:12:34.614Z,98687.13
2023-05-14T19:15:20.264Z,98687.56
2023-05-14T19:18:06.452Z,98688.00
2023-05-14T19:20:51.930Z,98685.69
2023-05-14T19:23:37.623Z,98684.09
2023-05-14T19:26:23.328Z,98688.13
2023-05-14T19:29:08.671Z,98696.88
2023-05-14T19:31:54.096Z,98690.53
2023-05-14T19:34:40.133Z,98694.53
2023-05-14T19:37:26.211Z,98696.97
2023-05-14T19:40:12.065Z,98697.44
2023-05-14T19:42:57.503Z,98698.63
2023-05-14T19:45:42.913Z,98683.63
2023-05-14T19:48:28.182Z,98684.06
2023-05-14T19:51:13.661Z,98677.72
2023-05-14T19:53:58.973Z,98680.16
2023-05-14T19:56:44.407Z,98670.25
2023-05-14T19:59:29.924Z,98682.59
2023-05-14T20:02:18.609Z,98674.25
2023-05-14T20:05:06.699Z,98675.09
2023-05-14T20:07:54.627Z,98687.44
2023-05-14T20:10:41.417Z,98682.31
2023-05-14T20:13:27.060Z,98673.63
2023-05-14T20:16:13.579Z,98665.72
2023-05-14T20:18:59.097Z,98671.28
2023-05-14T20:21:44.340Z,98662.59
2023-05-14T20:24:29.639Z,98669.06
2023-05-14T20:27:14.982Z,98676.19
2023-05-14T20:30:00.338Z,98676.19
2023-05-14T20:32:46.378Z,98667.50
2023-05-14T20:35:31.833Z,98660.38
2023-05-14T20:38:19.164Z,98651.25
2023-05-14T20:41:04.538Z,98652.47
2023-05-14T20:43:49.794Z,98648.91
2023-05-14T20:46:35.119Z,98644.59
2023-05-14T20:49:20.484Z,98643.00
2023-05-14T20:52:05.902Z,98639.47
2023-05-14T20:54:51.729Z,98635.91
2023-05-14T20:57:37.220Z,98640.22
2023-05-14T21:00:22.545Z,98634.34
2023-05-14T21:03:08.105Z,98628.78
2023-05-14T21:05:55.981Z,98628.78
2023-05-14T21:08:41.548Z,98639.13
2023-05-14T21:11:26.896Z,98624.09
2023-05-14T21:14:12.108Z,98622.09
2023-05-14T21:16:57.509Z,98624.09
2023-05-14T21:19:42.647Z,98619.78
2023-05-14T21:22:28.153Z,98624.09
2023-05-14T21:25:13.546Z,98612.66
2023-05-14T21:27:58.744Z,98615.44
2023-05-14T21:30:44.081Z,98614.66
2023-05-14T21:33:29.366Z,98605.97
2023-05-14T21:36:14.647Z,98606.75
2023-05-14T21:38:59.915Z,98609.53
2023-05-14T21:41:45.401Z,98611.88
2023-05-14T21:44:30.713Z,98596.75
2023-05-14T21:47:16.336Z,98594.78
2023-05-14T21:50:02.148Z,98597.88
2023-05-14T21:52:47.194Z,98584.00
2023-05-14T21:55:32.608Z,98582.00
2023-05-14T21:58:19.155Z,98582.00
2023-05-14T22:01:04.592Z,98574.44
2023-05-14T22:03:50.469Z,98576.00
2023-05-14T22:06:36.889Z,98572.44
2023-05-14T22:09:22.388Z,98569.66
2023-05-14T22:12:08.016Z,98563.69
2023-05-14T22:14:53.436Z,98571.66
2023-05-14T22:17:39.284Z,98557.78
2023-05-14T22:20:24.539Z,98570.44
2023-05-14T22:23:09.798Z,98564.88
2023-05-14T22:25:55.228Z,98555.78
2023-05-14T22:28:42.960Z,98560.56
2023-05-14T22:31:28.426Z,98560.56
2023-05-14T22:34:14.125Z,98553.78
2023-05-14T22:36:59.810Z,98555.00
2023-05-14T22:39:45.491Z,98553.78
2023-05-14T22:42:30.765Z,98546.66
2023-05-14T22:45:16.042Z,98549.44
2023-05-14T22:48:01.309Z,98543.91
2023-05-14T22:50:46.434Z,98545.09
2023-05-14T22:53:31.741Z,98543.91
2023-05-14T22:56:16.991Z,98534.31
2023-05-14T22:59:02.405Z,98532.78
2023-05-14T23:01:47.529Z,98532.78
2023-05-14T23:04:32.907Z,98524.44
2023-05-14T23:07:18.169Z,98522.09
2023-05-14T23:10:04.100Z,98513.00
2023-05-14T23:12:49.478Z,98520.91
2023-05-14T23:15:34.754Z,98504.66
2023-05-14T23:18:20.054Z,98505.91
2023-05-14T23:21:05.401Z,98503.13
2023-05-14T23:23:51.193Z,98506.66
2023-05-14T23:26:36.590Z,98497.56
2023-05-14T23:29:21.810Z,98501.13
2023-05-14T23:32:07.405Z,98494.78
2023-05-14T23:34:52.875Z,98494.78
2023-05-14T23:37:42.577Z,98483.34
2023-05-14T23:40:27.760Z,98481.31
2023-05-14T23:43:12.879Z,98478.13
2023-05-14T23:45:58.462Z,98474.53
2023-05-14T23:48:44.146Z,98468.22
2023-05-14T23:51:29.569Z,98457.88
2023-05-14T23:54:14.942Z,98452.78
2023-05-14T23:57:00.436Z,98458.34
2023-05-14T23:59:46.232Z,98459.09
